createdAt,value
2019-03-10T00:00:28.189Z,4.10
2019-03-10T00:02:57.160Z,4.10
2019-03-10T00:05:26.176Z,4.20
2019-03-10T00:07:55.168Z,4.20
2019-03-10T00:10:24.164Z,4.20
2019-03-10T00:12:53.162Z,4.20
2019-03-10T00:15:22.204Z,4.20
2019-03-10T00:17:51.150Z,4.30
2019-03-10T00:20:19.964Z,4.40
2019-03-10T00:22:48.918Z,4.40
2019-03-10T00:25:18.838Z,4.40
2019-03-10T00:27:47.727Z,4.40
2019-03-10T00:30:18.563Z,4.40
2019-03-10T00:32:47.558Z,4.40
2019-03-10T00:35:16.549Z,4.30
2019-03-10T00:37:45.367Z,4.30
2019-03-10T00:40:35.010Z,4.30
2019-03-10T00:43:23.256Z,4.30
2019-03-10T00:46:01.159Z,4.30
2019-03-10T00:48:52.459Z,4.20
2019-03-10T00:51:30.382Z,4.30
2019-03-10T00:53:59.375Z,4.20
2019-03-10T00:56:28.347Z,4.30
2019-03-10T00:58:57.250Z,4.30
2019-03-10T01:01:26.147Z,4.30
2019-03-10T01:03:55.137Z,4.20
2019-03-10T01:06:24.032Z,4.30
2019-03-10T01:08:53.026Z,4.30
2019-03-10T01:11:22.018Z,4.30
2019-03-10T01:13:51.013Z,4.30
2019-03-10T01:16:20.292Z,4.30
2019-03-10T01:18:49.588Z,4.40
2019-03-10T01:21:19.219Z,4.40
2019-03-10T01:23:48.102Z,4.40
2019-03-10T01:26:17.820Z,4.40
2019-03-10T01:28:46.820Z,4.40
2019-03-10T01:31:18.571Z,4.40
2019-03-10T01:34:19.306Z,4.40
2019-03-10T01:36:48.198Z,4.40
2019-03-10T01:39:17.192Z,4.50
2019-03-10T01:41:46.075Z,4.50
2019-03-10T01:44:14.917Z,4.40
2019-03-10T01:46:43.864Z,4.40
2019-03-10T01:49:12.857Z,4.40
2019-03-10T01:51:41.850Z,4.40
2019-03-10T01:54:10.910Z,4.40
2019-03-10T01:56:39.837Z,4.40
2019-03-10T01:59:08.830Z,4.40
2019-03-10T02:01:37.825Z,4.30
2019-03-10T02:04:06.818Z,4.30
2019-03-10T02:06:35.809Z,4.30
2019-03-10T02:09:06.543Z,4.40
2019-03-10T02:11:35.642Z,4.40
2019-03-10T02:14:04.635Z,4.40
2019-03-10T02:16:33.629Z,4.40
2019-03-10T02:19:02.623Z,4.40
2019-03-10T02:21:31.614Z,4.40
2019-03-10T02:24:00.606Z,4.40
2019-03-10T02:26:29.599Z,4.40
2019-03-10T02:28:58.594Z,4.40
2019-03-10T02:31:27.587Z,4.40
2019-03-10T02:33:56.473Z,4.40
2019-03-10T02:36:25.573Z,4.40
2019-03-10T02:38:54.570Z,4.40
2019-03-10T02:41:23.556Z,4.30
2019-03-10T02:43:52.548Z,4.30
2019-03-10T02:46:21.541Z,4.30
2019-03-10T02:48:50.536Z,4.40
2019-03-10T02:51:19.531Z,4.30
2019-03-10T02:53:48.521Z,4.30
2019-03-10T02:56:17.515Z,4.30
2019-03-10T02:58:46.384Z,4.30
2019-03-10T03:01:15.283Z,4.30
2019-03-10T03:03:44.187Z,4.30
2019-03-10T03:06:13.182Z,4.30
2019-03-10T03:08:42.174Z,4.30
2019-03-10T03:11:11.176Z,4.30
2019-03-10T03:13:40.160Z,4.30
2019-03-10T03:16:09.040Z,4.30
2019-03-10T03:18:37.937Z,4.20
2019-03-10T03:21:06.844Z,4.30
2019-03-10T03:23:35.829Z,4.30
2019-03-10T03:26:04.819Z,4.30
2019-03-10T03:28:33.703Z,4.30
2019-03-10T03:31:02.597Z,4.30
2019-03-10T03:33:31.491Z,4.20
2019-03-10T03:36:06.626Z,4.20
2019-03-10T03:38:41.840Z,4.20
2019-03-10T03:41:15.983Z,4.20
2019-03-10T03:43:44.972Z,4.10
2019-03-10T03:46:13.966Z,4.20
2019-03-10T03:48:42.959Z,4.20
2019-03-10T03:51:11.965Z,4.20
2019-03-10T03:53:40.955Z,4.20
2019-03-10T03:56:09.937Z,4.20
2019-03-10T03:58:38.821Z,4.20
2019-03-10T04:01:11.994Z,4.20
2019-03-10T04:03:40.910Z,4.20
2019-03-10T04:06:09.907Z,4.20
2019-03-10T04:08:38.776Z,4.20
2019-03-10T04:11:07.682Z,4.20
2019-03-10T04:13:36.576Z,4.10
2019-03-10T04:16:05.579Z,4.10
2019-03-10T04:18:34.567Z,4.10
2019-03-10T04:21:03.410Z,4.10
2019-03-10T04:23:32.339Z,4.10
2019-03-10T04:26:07.072Z,4.10
2019-03-10T04:28:36.064Z,4.10
2019-03-10T04:31:05.750Z,4.10
2019-03-10T04:33:34.666Z,4.10
2019-03-10T04:36:03.551Z,4.10
2019-03-10T04:38:32.416Z,4.10
2019-03-10T04:41:01.335Z,4.10
2019-03-10T04:43:30.329Z,4.10
2019-03-10T04:45:59.326Z,4.10
2019-03-10T04:48:28.315Z,4.10
2019-03-10T04:50:57.308Z,4.10
2019-03-10T04:53:26.301Z,4.10
2019-03-10T04:56:05.837Z,4.10
2019-03-10T04:58:36.367Z,4.10
2019-03-10T05:01:05.261Z,4.10
2019-03-10T05:03:34.254Z,4.00
2019-03-10T05:06:03.251Z,4.00
2019-03-10T05:08:32.242Z,4.00
2019-03-10T05:11:01.233Z,4.10
2019-03-10T05:13:30.237Z,4.00
2019-03-10T05:15:59.227Z,4.00
2019-03-10T05:18:28.326Z,4.00
2019-03-10T05:20:57.415Z,4.10
2019-03-10T05:23:32.020Z,4.00
2019-03-10T05:26:01.350Z,4.00
2019-03-10T05:28:32.259Z,4.00
2019-03-10T05:31:01.382Z,4.00
2019-03-10T05:33:31.503Z,4.00
2019-03-10T05:36:00.495Z,4.00
2019-03-10T05:38:29.589Z,4.00
2019-03-10T05:40:58.716Z,4.00
2019-03-10T05:43:27.780Z,4.00
2019-03-10T05:45:56.875Z,4.10
2019-03-10T05:48:25.753Z,4.00
2019-03-10T05:50:54.649Z,4.10
2019-03-10T05:53:23.643Z,4.10
2019-03-10T05:55:52.511Z,4.10
2019-03-10T05:58:21.356Z,4.10
2019-03-10T06:00:50.313Z,4.10
2019-03-10T06:03:19.308Z,4.10
2019-03-10T06:05:48.298Z,4.10
2019-03-10T06:08:17.293Z,4.10
2019-03-10T06:10:46.283Z,4.10
2019-03-10T06:13:15.277Z,4.10
2019-03-10T06:15:44.270Z,4.10
2019-03-10T06:18:14.165Z,4.20
2019-03-10T06:20:43.254Z,4.10
2019-03-10T06:23:12.093Z,4.10
2019-03-10T06:25:41.165Z,4.10
2019-03-10T06:28:09.987Z,4.10
2019-03-10T06:30:38.943Z,4.10
2019-03-10T06:33:08.452Z,4.10
2019-03-10T06:35:37.325Z,4.20
2019-03-10T06:38:06.440Z,4.20
2019-03-10T06:40:35.430Z,4.30
2019-03-10T06:43:04.423Z,4.30
2019-03-10T06:45:33.421Z,4.30
2019-03-10T06:48:02.299Z,4.20
2019-03-10T06:50:31.403Z,4.30
2019-03-10T06:53:00.396Z,4.30
2019-03-10T06:55:29.278Z,4.30
2019-03-10T06:57:58.111Z,4.40
2019-03-10T07:00:27.046Z,4.40
2019-03-10T07:02:55.950Z,4.40
2019-03-10T07:05:24.846Z,4.30
2019-03-10T07:07:53.727Z,4.00
2019-03-10T07:10:22.735Z,3.90
2019-03-10T07:12:51.725Z,3.90
2019-03-10T07:15:20.719Z,3.90
2019-03-10T07:17:49.724Z,3.90
2019-03-10T07:20:20.038Z,4.00
2019-03-10T07:22:48.931Z,3.90
2019-03-10T07:25:17.924Z,3.90
2019-03-10T07:27:51.523Z,3.90
2019-03-10T07:30:38.333Z,3.90
2019-03-10T07:33:08.960Z,3.90
2019-03-10T07:35:43.274Z,3.90
2019-03-10T07:38:16.678Z,3.90
2019-03-10T07:40:56.115Z,4.00
2019-03-10T07:43:32.790Z,4.10
2019-03-10T07:46:03.193Z,4.10
2019-03-10T07:48:33.939Z,4.10
2019-03-10T07:51:04.376Z,4.10
2019-03-10T07:53:35.044Z,4.20
2019-03-10T07:56:05.743Z,4.20
2019-03-10T07:58:39.133Z,4.30
2019-03-10T08:01:21.854Z,4.30
2019-03-10T08:04:04.670Z,4.40
2019-03-10T08:06:38.376Z,4.40
2019-03-10T08:09:26.102Z,4.40
2019-03-10T08:11:59.280Z,4.40
2019-03-10T08:14:41.806Z,4.50
2019-03-10T08:17:12.337Z,4.50
2019-03-10T08:19:42.865Z,4.60
2019-03-10T08:22:19.230Z,4.50
2019-03-10T08:24:52.528Z,4.50
2019-03-10T08:27:25.819Z,4.50
2019-03-10T08:29:58.941Z,4.60
2019-03-10T08:32:35.171Z,4.50
2019-03-10T08:35:06.008Z,4.50
2019-03-10T08:37:45.336Z,4.10
2019-03-10T08:40:21.813Z,4.10
2019-03-10T08:42:57.871Z,4.10
2019-03-10T08:45:28.420Z,4.20
2019-03-10T08:47:58.930Z,4.20
2019-03-10T08:50:29.461Z,4.20
2019-03-10T08:53:11.759Z,4.30
2019-03-10T08:55:45.274Z,4.30
2019-03-10T08:58:24.700Z,4.20
2019-03-10T09:01:11.610Z,4.20
2019-03-10T09:03:45.113Z,4.10
2019-03-10T09:06:15.789Z,4.10
2019-03-10T09:08:55.700Z,4.10
2019-03-10T09:11:29.086Z,4.10
2019-03-10T09:13:59.589Z,4.10
2019-03-10T09:16:30.045Z,4.20
2019-03-10T09:19:00.580Z,4.30
2019-03-10T09:21:47.484Z,4.40
2019-03-10T09:24:24.062Z,4.50
2019-03-10T09:27:11.177Z,4.40
2019-03-10T09:29:58.295Z,4.50
2019-03-10T09:32:47.047Z,4.40
2019-03-10T09:35:17.580Z,4.50
2019-03-10T09:37:51.079Z,4.60
2019-03-10T09:40:30.518Z,4.60
2019-03-10T09:43:13.126Z,4.60
2019-03-10T09:45:48.496Z,4.50
2019-03-10T09:48:34.919Z,4.50
2019-03-10T09:51:05.440Z,4.40
2019-03-10T09:53:35.876Z,4.30
2019-03-10T09:56:09.052Z,4.20
2019-03-10T09:58:39.550Z,4.20
2019-03-10T10:01:10.080Z,4.20
2019-03-10T10:03:46.535Z,4.20
2019-03-10T10:06:17.071Z,4.30
2019-03-10T10:08:59.507Z,4.20
2019-03-10T10:11:42.299Z,4.20
2019-03-10T10:14:28.190Z,4.10
2019-03-10T10:17:07.418Z,4.20
2019-03-10T10:19:43.997Z,4.20
2019-03-10T10:22:17.693Z,4.20
2019-03-10T10:25:08.398Z,4.20
2019-03-10T10:27:44.764Z,4.30
2019-03-10T10:30:24.404Z,4.40
2019-03-10T10:32:57.804Z,4.40
2019-03-10T10:35:36.937Z,4.20
2019-03-10T10:38:17.929Z,4.20
2019-03-10T10:40:39.532Z,4.20
2019-03-10T10:43:15.897Z,4.10
2019-03-10T10:45:55.334Z,4.20
2019-03-10T10:48:38.166Z,4.20
2019-03-10T10:51:14.828Z,4.20
2019-03-10T10:54:01.747Z,4.30
2019-03-10T10:56:48.252Z,4.40
2019-03-10T10:59:21.537Z,4.50
2019-03-10T11:02:06.807Z,4.70
2019-03-10T11:04:46.034Z,4.80
2019-03-10T11:07:16.651Z,4.90
2019-03-10T11:09:47.309Z,5.00
2019-03-10T11:12:26.642Z,5.10
2019-03-10T11:15:05.859Z,5.00
2019-03-10T11:17:39.068Z,4.90
2019-03-10T11:20:26.696Z,4.90
2019-03-10T11:22:57.327Z,4.80
2019-03-10T11:25:27.961Z,4.80
2019-03-10T11:28:04.529Z,4.80
2019-03-10T11:30:50.112Z,4.90
2019-03-10T11:33:32.404Z,4.80
2019-03-10T11:36:02.943Z,4.70
2019-03-10T11:38:33.473Z,4.70
2019-03-10T11:41:10.048Z,4.80
2019-03-10T11:43:40.587Z,4.70
2019-03-10T11:46:27.485Z,4.60
2019-03-10T11:48:58.036Z,4.20
2019-03-10T11:51:31.002Z,3.50
2019-03-10T11:54:01.431Z,3.40
2019-03-10T11:56:41.872Z,3.20
2019-03-10T11:59:10.170Z,3.10
2019-03-10T12:01:44.895Z,3.00
2019-03-10T12:04:15.534Z,2.90
2019-03-10T12:06:51.475Z,2.80
2019-03-10T12:09:23.131Z,2.80
2019-03-10T12:11:52.034Z,2.70
2019-03-10T12:14:20.915Z,2.70
2019-03-10T12:16:50.018Z,2.70
2019-03-10T12:19:19.013Z,2.80
2019-03-10T12:21:48.003Z,2.70
2019-03-10T12:24:20.376Z,2.70
2019-03-10T12:26:48.762Z,2.70
2019-03-10T12:29:17.761Z,2.60
2019-03-10T12:31:46.739Z,2.60
2019-03-10T12:34:15.732Z,2.60
2019-03-10T12:36:44.792Z,2.50
2019-03-10T12:39:13.917Z,2.50
2019-03-10T12:41:42.912Z,2.50
2019-03-10T12:44:11.808Z,2.70
2019-03-10T12:46:40.796Z,2.60
2019-03-10T12:49:09.789Z,2.40
2019-03-10T12:51:38.786Z,2.40
2019-03-10T12:54:07.678Z,2.50
2019-03-10T12:56:40.460Z,2.60
2019-03-10T12:59:08.626Z,2.70
2019-03-10T13:01:37.728Z,2.60
2019-03-10T13:04:06.723Z,2.60
2019-03-10T13:06:35.714Z,2.80
2019-03-10T13:09:06.858Z,3.00
2019-03-10T13:11:35.890Z,3.00
2019-03-10T13:14:04.724Z,3.00
2019-03-10T13:16:33.751Z,2.90
2019-03-10T13:19:02.581Z,2.80
2019-03-10T13:21:31.520Z,2.80
2019-03-10T13:24:00.450Z,2.70
2019-03-10T13:26:29.504Z,2.60
2019-03-10T13:28:58.501Z,2.60
2019-03-10T13:31:27.380Z,2.70
2019-03-10T13:33:56.273Z,2.80
2019-03-10T13:36:25.167Z,2.80
2019-03-10T13:38:54.163Z,2.70
2019-03-10T13:41:23.037Z,2.60
2019-03-10T13:43:54.029Z,2.60
2019-03-10T13:46:22.988Z,2.80
2019-03-10T13:48:51.868Z,3.00
2019-03-10T13:51:21.076Z,2.80
2019-03-10T13:53:49.973Z,2.80
2019-03-10T13:56:18.956Z,2.80
2019-03-10T13:58:47.827Z,2.80
2019-03-10T14:01:16.941Z,2.70
2019-03-10T14:03:45.825Z,2.60
2019-03-10T14:06:14.686Z,2.40
2019-03-10T14:08:43.614Z,2.40
2019-03-10T14:11:12.608Z,2.30
2019-03-10T14:13:41.493Z,2.30
2019-03-10T14:16:10.385Z,2.20
2019-03-10T14:18:39.286Z,2.30
2019-03-10T14:21:08.293Z,2.20
2019-03-10T14:23:37.265Z,2.30
2019-03-10T14:26:06.567Z,2.30
2019-03-10T14:28:36.039Z,2.40
2019-03-10T14:31:05.475Z,2.30
2019-03-10T14:33:34.467Z,2.30
2019-03-10T14:36:03.459Z,2.00
2019-03-10T14:38:32.343Z,2.10
2019-03-10T14:41:01.240Z,2.20
2019-03-10T14:43:30.132Z,2.10
2019-03-10T14:45:59.126Z,2.30
2019-03-10T14:48:29.436Z,2.30
2019-03-10T14:51:17.699Z,2.30
2019-03-10T14:53:46.696Z,2.30
2019-03-10T14:56:15.573Z,2.30
2019-03-10T14:58:44.465Z,2.20
2019-03-10T15:01:32.712Z,2.30
2019-03-10T15:04:01.950Z,2.40
2019-03-10T15:06:31.039Z,2.30
2019-03-10T15:08:59.932Z,2.20
2019-03-10T15:11:29.303Z,2.00
2019-03-10T15:13:58.294Z,2.10
2019-03-10T15:16:27.287Z,2.30
2019-03-10T15:18:56.280Z,2.20
2019-03-10T15:21:25.271Z,2.20
2019-03-10T15:23:54.264Z,2.20
2019-03-10T15:26:23.368Z,2.00
2019-03-10T15:28:52.780Z,1.90
2019-03-10T15:31:21.864Z,1.80
2019-03-10T15:33:50.758Z,1.80
2019-03-10T15:36:20.771Z,1.90
2019-03-10T15:38:50.067Z,1.90
2019-03-10T15:41:19.063Z,1.90
2019-03-10T15:43:47.885Z,2.00
2019-03-10T15:46:17.145Z,1.90
2019-03-10T15:48:46.039Z,1.70
2019-03-10T15:51:14.898Z,1.70
2019-03-10T15:53:43.817Z,1.60
2019-03-10T15:56:12.713Z,1.60
2019-03-10T15:58:41.597Z,1.80
2019-03-10T16:01:10.697Z,1.70
2019-03-10T16:03:39.892Z,1.70
2019-03-10T16:06:08.772Z,1.70
2019-03-10T16:08:37.676Z,1.50
2019-03-10T16:11:06.668Z,1.60
2019-03-10T16:13:35.664Z,1.60
2019-03-10T16:16:04.946Z,1.60
2019-03-10T16:18:33.956Z,1.50
2019-03-10T16:21:02.950Z,1.50
2019-03-10T16:23:31.942Z,1.30
2019-03-10T16:26:00.937Z,1.30
2019-03-10T16:28:29.928Z,1.30
2019-03-10T16:30:58.922Z,1.30
2019-03-10T16:33:27.921Z,1.30
2019-03-10T16:35:56.790Z,1.20
2019-03-10T16:38:25.637Z,1.20
2019-03-10T16:40:56.124Z,1.10
2019-03-10T16:43:25.116Z,1.00
2019-03-10T16:45:54.113Z,1.00
2019-03-10T16:48:23.737Z,1.10
2019-03-10T16:50:52.713Z,1.00
2019-03-10T16:53:23.533Z,1.00
2019-03-10T16:56:02.508Z,1.00
2019-03-10T16:58:24.092Z,1.20
2019-03-10T17:00:53.106Z,1.20
2019-03-10T17:03:22.057Z,1.10
2019-03-10T17:05:51.169Z,1.00
2019-03-10T17:08:20.165Z,0.90
2019-03-10T17:10:52.341Z,1.00
2019-03-10T17:13:21.823Z,1.10
2019-03-10T17:15:50.819Z,1.10
2019-03-10T17:18:19.933Z,1.20
2019-03-10T17:20:48.921Z,1.10
2019-03-10T17:23:18.300Z,1.20
2019-03-10T17:25:47.523Z,1.30
2019-03-10T17:28:16.514Z,1.30
2019-03-10T17:30:47.044Z,1.30
2019-03-10T17:33:16.522Z,1.30
2019-03-10T17:35:47.070Z,1.20
2019-03-10T17:38:17.422Z,1.20
2019-03-10T17:40:46.266Z,1.30
2019-03-10T17:43:16.515Z,1.30
2019-03-10T17:45:45.610Z,1.30
2019-03-10T17:48:14.712Z,1.30
2019-03-10T17:50:49.435Z,1.30
2019-03-10T17:53:18.426Z,1.30
2019-03-10T17:55:47.420Z,1.10
2019-03-10T17:58:16.415Z,1.10
2019-03-10T18:00:45.406Z,1.20
2019-03-10T18:03:14.406Z,0.90
2019-03-10T18:05:44.818Z,0.90
2019-03-10T18:08:13.922Z,1.00
2019-03-10T18:10:42.913Z,1.10
2019-03-10T18:13:16.088Z,0.90
2019-03-10T18:15:44.992Z,1.00
2019-03-10T18:18:13.890Z,1.00
2019-03-10T18:20:42.882Z,0.80
2019-03-10T18:23:11.890Z,0.80
2019-03-10T18:25:40.868Z,1.00
2019-03-10T18:28:09.860Z,1.00
2019-03-10T18:30:38.853Z,0.90
2019-03-10T18:33:09.300Z,1.00
2019-03-10T18:35:39.580Z,1.00
2019-03-10T18:38:08.487Z,1.00
2019-03-10T18:40:37.590Z,1.00
2019-03-10T18:43:06.583Z,0.90
2019-03-10T18:45:35.576Z,0.90
2019-03-10T18:48:04.571Z,0.80
2019-03-10T18:50:33.452Z,0.80
2019-03-10T18:53:02.351Z,0.80
2019-03-10T18:55:31.241Z,0.80
2019-03-10T18:58:00.237Z,0.90
2019-03-10T19:00:32.913Z,0.90
2019-03-10T19:03:01.797Z,0.80
2019-03-10T19:05:30.693Z,0.80
2019-03-10T19:07:59.585Z,0.80
2019-03-10T19:10:28.579Z,0.80
2019-03-10T19:12:57.463Z,0.90
2019-03-10T19:15:27.684Z,0.80
2019-03-10T19:17:56.588Z,0.90
2019-03-10T19:20:25.576Z,0.90
2019-03-10T19:22:54.467Z,0.80
2019-03-10T19:25:23.459Z,0.80
2019-03-10T19:27:52.557Z,0.50
2019-03-10T19:30:23.288Z,0.30
2019-03-10T19:32:52.300Z,0.30
2019-03-10T19:35:21.136Z,0.20
2019-03-10T19:37:58.024Z,0.20
2019-03-10T19:40:27.039Z,0.10
2019-03-10T19:42:55.937Z,0.10
2019-03-10T19:45:25.548Z,0.10
2019-03-10T19:47:54.536Z,0.10
2019-03-10T19:50:28.859Z,0.10
2019-03-10T19:52:57.676Z,0.00
2019-03-10T19:55:26.738Z,0.10
2019-03-10T19:57:56.652Z,0.10
2019-03-10T20:00:25.653Z,0.10
2019-03-10T20:02:54.665Z,0.10
2019-03-10T20:05:23.632Z,0.10
2019-03-10T20:07:52.625Z,0.20
2019-03-10T20:10:25.304Z,0.20
2019-03-10T20:12:54.269Z,0.20
2019-03-10T20:15:24.169Z,0.20
2019-03-10T20:17:53.210Z,0.30
2019-03-10T20:20:30.823Z,0.30
2019-03-10T20:23:01.192Z,0.30
2019-03-10T20:25:30.411Z,0.30
2019-03-10T20:27:59.314Z,0.30
2019-03-10T20:30:28.922Z,0.40
2019-03-10T20:32:58.228Z,0.40
2019-03-10T20:35:27.233Z,0.30
2019-03-10T20:37:56.210Z,0.20
2019-03-10T20:40:29.294Z,0.20
2019-03-10T20:42:58.813Z,0.20
2019-03-10T20:45:27.772Z,0.10
2019-03-10T20:47:57.018Z,0.10
2019-03-10T20:50:26.192Z,0.00
2019-03-10T20:52:55.083Z,0.00
2019-03-10T20:55:24.075Z,-0.20
2019-03-10T20:57:53.166Z,-0.20
2019-03-10T21:00:23.802Z,-0.20
2019-03-10T21:02:52.904Z,-0.40
2019-03-10T21:05:21.898Z,-0.40
2019-03-10T21:07:50.891Z,-0.40
2019-03-10T21:10:21.219Z,-0.50
2019-03-10T21:12:51.331Z,-0.50
2019-03-10T21:15:21.578Z,-0.60
2019-03-10T21:17:50.644Z,-0.60
2019-03-10T21:20:23.628Z,-0.70
2019-03-10T21:22:52.697Z,-0.80
2019-03-10T21:25:34.112Z,-0.90
2019-03-10T21:28:02.995Z,-0.90
2019-03-10T21:30:35.169Z,-1.10
2019-03-10T21:33:04.161Z,-1.20
2019-03-10T21:35:33.611Z,-1.30
2019-03-10T21:38:02.765Z,-1.50
2019-03-10T21:40:34.856Z,-1.40
2019-03-10T21:43:03.924Z,-1.40
2019-03-10T21:45:33.321Z,-1.60
2019-03-10T21:48:02.315Z,-1.60
2019-03-10T21:50:31.207Z,-1.50
2019-03-10T21:53:00.099Z,-1.50
2019-03-10T21:55:29.096Z,-1.70
2019-03-10T21:57:58.087Z,-1.70
2019-03-10T22:00:27.079Z,-1.70
2019-03-10T22:02:56.072Z,-1.70
2019-03-10T22:05:25.023Z,-1.90
2019-03-10T22:07:54.062Z,-2.00
2019-03-10T22:10:27.380Z,-2.00
2019-03-10T22:12:53.581Z,-2.10
2019-03-10T22:15:22.576Z,-2.10
2019-03-10T22:17:51.577Z,-2.20
2019-03-10T22:20:20.954Z,-2.20
2019-03-10T22:22:52.726Z,-2.30
2019-03-10T22:25:21.624Z,-2.30
2019-03-10T22:27:50.617Z,-2.30
2019-03-10T22:30:20.641Z,-2.50
2019-03-10T22:32:49.618Z,-2.50
2019-03-10T22:35:18.516Z,-2.50
2019-03-10T22:37:47.816Z,-2.40
2019-03-10T22:40:18.066Z,-2.40
2019-03-10T22:42:48.567Z,-2.50
2019-03-10T22:45:18.600Z,-2.50
2019-03-10T22:47:47.575Z,-2.50
2019-03-10T22:50:16.905Z,-2.60
2019-03-10T22:52:46.072Z,-2.60
2019-03-10T22:55:16.383Z,-2.50
2019-03-10T22:57:45.664Z,-2.50
2019-03-10T23:00:20.730Z,-2.30
2019-03-10T23:02:49.724Z,-2.20
2019-03-10T23:05:18.717Z,-2.30
2019-03-10T23:07:47.603Z,-2.40
2019-03-10T23:10:16.805Z,-2.30
2019-03-10T23:12:45.798Z,-2.30
2019-03-10T23:15:15.306Z,-2.30
2019-03-10T23:17:44.396Z,-2.20
2019-03-10T23:20:16.612Z,-2.20
2019-03-10T23:22:45.761Z,-2.20
2019-03-10T23:25:14.965Z,-2.20
2019-03-10T23:27:43.956Z,-2.10
2019-03-10T23:30:17.155Z,-2.20
2019-03-10T23:32:46.244Z,-2.20
2019-03-10T23:35:15.235Z,-2.20
2019-03-10T23:37:44.229Z,-2.20
2019-03-10T23:40:17.980Z,-2.20
2019-03-10T23:42:46.925Z,-2.20
2019-03-10T23:45:19.817Z,-2.10
2019-03-10T23:47:48.783Z,-2.10
2019-03-10T23:50:18.756Z,-2.10
2019-03-10T23:52:47.819Z,-2.00
2019-03-10T23:55:17.018Z,-2.10
2019-03-10T23:57:46.496Z,-2.20
